Time;durP1;ratioP1;P1;durP2;ratioP2;P2;SDS_P1;SDS_P2;PMS_P1;PMS_P2;Temp;Humidity;BMP_temperature;BMP_pressure;BME280_temperature;BME280_humidity;BME280_pressure;Samples;Min_cycle;Max_cycle;Signal;HPM_P1;HPM_P2
2024/01/30 00:02:10;;;;;;;10.02;7.10;;;;;;;;;;5111251;28;20055;-82
2024/01/30 00:04:36;;;;;;;9.18;6.05;;;;;;;;;;5101933;28;20039;-82
2024/01/30 00:07:03;;;;;;;8.75;6.47;;;;;;;;;;5101789;28;20157;-82
2024/01/30 00:09:29;;;;;;;10.55;6.82;;;;;;;;;;5100628;28;20048;-82
2024/01/30 00:11:55;;;;;;;9.90;6.22;;;;;;;;;;5101275;28;20036;-81
2024/01/30 00:14:21;;;;;;;10.00;6.60;;;;;;;;;;5099135;28;20097;-81
2024/01/30 00:16:47;;;;;;;10.02;6.72;;;;;;;;;;5100349;28;20032;-81
2024/01/30 00:19:13;;;;;;;10.57;6.80;;;;;;;;;;5099023;28;20036;-81
2024/01/30 00:21:39;;;;;;;12.07;7.30;;;;;;;;;;5098469;28;20043;-81
2024/01/30 00:24:05;;;;;;;9.13;6.07;;;;;;;;;;5079467;28;20031;-81
2024/01/30 00:26:31;;;;;;;10.20;6.47;;;;;;;;;;5095830;28;20051;-81
2024/01/30 00:28:57;;;;;;;10.32;6.18;;;;;;;;;;5095968;28;20036;-81
2024/01/30 00:31:23;;;;;;;8.23;5.97;;;;;;;;;;5079265;28;20495;-81
2024/01/30 00:33:49;;;;;;;12.77;7.07;;;;;;;;;;5095418;28;20044;-81
2024/01/30 00:36:15;;;;;;;8.82;6.43;;;;;;;;;;5093772;28;20040;-81
2024/01/30 00:38:41;;;;;;;9.95;5.55;;;;;;;;;;5095808;28;20032;-81
2024/01/30 00:41:08;;;;;;;10.65;6.20;;;;;;;;;;5096569;28;20028;-81
2024/01/30 00:43:34;;;;;;;10.02;6.35;;;;;;;;;;5095997;28;20503;-81
2024/01/30 00:46:00;;;;;;;9.35;6.13;;;;;;;;;;5095159;28;20076;-82
2024/01/30 00:48:26;;;;;;;9.63;6.13;;;;;;;;;;5093505;28;20111;-82
2024/01/30 00:50:52;;;;;;;7.60;5.80;;;;;;;;;;5083793;28;20067;-82
2024/01/30 00:53:18;;;;;;;9.15;5.90;;;;;;;;;;5098149;28;20077;-82
2024/01/30 00:55:44;;;;;;;8.63;5.93;;;;;;;;;;5104419;28;20042;-82
2024/01/30 00:58:10;;;;;;;8.30;5.68;;;;;;;;;;5103157;28;20036;-82
2024/01/30 01:00:37;;;;;;;9.40;6.38;;;;;;;;;;5099302;28;20463;-82
2024/01/30 01:03:03;;;;;;;8.32;6.18;;;;;;;;;;5102387;28;22422;-81
2024/01/30 01:05:29;;;;;;;8.55;5.63;;;;;;;;;;5107203;28;20043;-81
2024/01/30 01:07:55;;;;;;;9.13;5.95;;;;;;;;;;5107164;28;20044;-81
2024/01/30 01:10:22;;;;;;;9.82;5.90;;;;;;;;;;5107640;28;20062;-81
2024/01/30 01:12:48;;;;;;;10.10;6.60;;;;;;;;;;5103635;28;20048;-81
2024/01/30 01:15:14;;;;;;;10.07;5.75;;;;;;;;;;5103635;28;20113;-81
2024/01/30 01:17:40;;;;;;;7.93;5.68;;;;;;;;;;5103610;28;20049;-81
2024/01/30 01:20:07;;;;;;;8.50;5.13;;;;;;;;;;5106100;28;20028;-81
2024/01/30 01:22:34;;;;;;;10.18;5.65;;;;;;;;;;5104336;28;20046;-81
2024/01/30 01:25:00;;;;;;;7.38;5.32;;;;;;;;;;5101651;28;20058;-81
2024/01/30 01:27:26;;;;;;;9.90;5.88;;;;;;;;;;5102912;28;20505;-81
2024/01/30 01:29:52;;;;;;;9.48;5.88;;;;;;;;;;5102079;28;20028;-81
2024/01/30 01:32:18;;;;;;;9.48;5.60;;;;;;;;;;5102552;28;20082;-81
2024/01/30 01:34:44;;;;;;;8.70;5.70;;;;;;;;;;5103196;28;20457;-81
2024/01/30 01:37:10;;;;;;;11.68;6.57;;;;;;;;;;5100921;28;20039;-81
2024/01/30 01:39:36;;;;;;;8.98;5.93;;;;;;;;;;5102481;28;20051;-81
2024/01/30 01:42:02;;;;;;;12.35;6.18;;;;;;;;;;5101706;28;20036;-81
2024/01/30 01:44:28;;;;;;;9.52;6.38;;;;;;;;;;5100416;28;20086;-81
2024/01/30 01:46:55;;;;;;;9.93;6.90;;;;;;;;;;5099712;28;20040;-81
2024/01/30 01:49:25;;;;;;;8.20;5.88;;;;;;;;;;5101117;28;20067;-81
2024/01/30 01:51:54;;;;;;;9.23;5.63;;;;;;;;;;5098457;28;20040;-81
2024/01/30 01:54:20;;;;;;;9.60;5.93;;;;;;;;;;5099330;28;20559;-81
2024/01/30 01:56:46;;;;;;;12.95;6.25;;;;;;;;;;5102195;28;20071;-81
2024/01/30 01:59:12;;;;;;;12.38;6.65;;;;;;;;;;5083018;28;20043;-81
2024/01/30 02:01:40;;;;;;;9.80;6.55;;;;;;;;;;5100393;28;20039;-81
2024/01/30 02:04:07;;;;;;;10.80;6.78;;;;;;;;;;5101737;28;20043;-81
2024/01/30 02:06:34;;;;;;;9.35;6.97;;;;;;;;;;5108861;28;20472;-81
2024/01/30 02:09:00;;;;;;;6.93;5.18;;;;;;;;;;5109471;28;20072;-81
2024/01/30 02:11:26;;;;;;;10.63;6.32;;;;;;;;;;5111560;28;20040;-81
2024/01/30 02:13:53;;;;;;;9.55;5.45;;;;;;;;;;5109437;28;20036;-81
2024/01/30 02:16:18;;;;;;;9.05;5.55;;;;;;;;;;5100841;28;20032;-81
2024/01/30 02:18:47;;;;;;;8.88;4.97;;;;;;;;;;5099999;28;20039;-81
2024/01/30 02:21:13;;;;;;;7.63;5.18;;;;;;;;;;5100045;28;20086;-81
2024/01/30 02:23:40;;;;;;;9.43;5.85;;;;;;;;;;5100346;28;20115;-81
2024/01/30 02:26:07;;;;;;;8.57;5.72;;;;;;;;;;5099791;28;20040;-81
2024/01/30 02:28:33;;;;;;;9.35;5.60;;;;;;;;;;5100132;28;20545;-81
2024/01/30 02:30:59;;;;;;;11.60;5.88;;;;;;;;;;5099250;28;20099;-81
2024/01/30 02:33:25;;;;;;;7.97;6.10;;;;;;;;;;5099528;28;20408;-81
2024/01/30 02:35:51;;;;;;;9.95;5.97;;;;;;;;;;5099096;28;20042;-81
2024/01/30 02:38:17;;;;;;;8.52;5.68;;;;;;;;;;5098852;28;20427;-81
2024/01/30 02:40:43;;;;;;;9.82;5.95;;;;;;;;;;5099767;28;20159;-81
2024/01/30 02:43:09;;;;;;;9.15;5.13;;;;;;;;;;5099346;28;20091;-81
2024/01/30 02:45:36;;;;;;;11.65;6.82;;;;;;;;;;5099099;28;20096;-81
2024/01/30 02:48:02;;;;;;;10.82;6.50;;;;;;;;;;5099767;28;20048;-81
2024/01/30 02:50:28;;;;;;;9.52;5.93;;;;;;;;;;5100145;28;20028;-81
2024/01/30 02:52:54;;;;;;;10.88;6.95;;;;;;;;;;5096346;28;20051;-81
2024/01/30 02:55:20;;;;;;;12.15;8.15;;;;;;;;;;5099964;28;20032;-81
2024/01/30 02:57:46;;;;;;;11.05;6.82;;;;;;;;;;5096314;28;20412;-81
2024/01/30 03:00:12;;;;;;;10.27;6.15;;;;;;;;;;5098979;28;20069;-81
2024/01/30 03:02:39;;;;;;;11.02;6.78;;;;;;;;;;5097926;28;20036;-81
2024/01/30 03:05:06;;;;;;;11.38;6.60;;;;;;;;;;5099709;28;20044;-81
2024/01/30 03:07:32;;;;;;;9.10;6.28;;;;;;;;;;5098673;28;20028;-81
2024/01/30 03:09:58;;;;;;;12.93;6.65;;;;;;;;;;5097507;28;20119;-81
2024/01/30 03:12:24;;;;;;;9.57;5.70;;;;;;;;;;5098083;28;20040;-81
2024/01/30 03:14:50;;;;;;;10.20;6.80;;;;;;;;;;5097553;28;20039;-81
2024/01/30 03:17:16;;;;;;;9.60;5.88;;;;;;;;;;5099189;28;20043;-81
2024/01/30 03:19:42;;;;;;;9.35;6.18;;;;;;;;;;5098735;28;20035;-81
2024/01/30 03:22:08;;;;;;;11.98;6.93;;;;;;;;;;5102006;28;20103;-81
2024/01/30 03:24:34;;;;;;;11.00;7.57;;;;;;;;;;5102176;28;20148;-82
2024/01/30 03:27:00;;;;;;;13.85;7.75;;;;;;;;;;5100010;28;20513;-82
2024/01/30 03:29:26;;;;;;;12.05;6.15;;;;;;;;;;5101038;28;20032;-82
2024/01/30 03:31:52;;;;;;;12.85;6.85;;;;;;;;;;5100852;28;20099;-82
2024/01/30 03:34:18;;;;;;;11.20;6.70;;;;;;;;;;5102206;28;20040;-82
2024/01/30 03:36:44;;;;;;;12.02;7.07;;;;;;;;;;5102642;28;20506;-81
2024/01/30 03:39:10;;;;;;;9.77;6.70;;;;;;;;;;5101596;28;20039;-81
2024/01/30 03:41:36;;;;;;;10.82;7.03;;;;;;;;;;5102686;28;20088;-81
2024/01/30 03:44:02;;;;;;;10.52;7.88;;;;;;;;;;5102558;28;20513;-81
2024/01/30 03:46:28;;;;;;;10.70;7.68;;;;;;;;;;5101431;28;20329;-81
2024/01/30 03:48:54;;;;;;;7.13;5.75;;;;;;;;;;5100866;28;20036;-82
2024/01/30 03:51:20;;;;;;;9.52;6.53;;;;;;;;;;5101243;28;20044;-82
2024/01/30 03:53:46;;;;;;;8.15;6.35;;;;;;;;;;5099666;28;20032;-82
2024/01/30 03:56:13;;;;;;;10.90;6.90;;;;;;;;;;5100305;28;20044;-82
2024/01/30 03:58:39;;;;;;;10.82;6.70;;;;;;;;;;5096993;28;20118;-82
2024/01/30 04:01:05;;;;;;;11.85;6.75;;;;;;;;;;5097713;28;20075;-82
2024/01/30 04:03:31;;;;;;;14.45;8.32;;;;;;;;;;5096725;28;20044;-82
2024/01/30 04:05:57;;;;;;;10.63;8.07;;;;;;;;;;5097213;28;20400;-82
2024/01/30 04:08:23;;;;;;;10.82;8.38;;;;;;;;;;5097086;28;20032;-82
2024/01/30 04:10:49;;;;;;;14.95;8.75;;;;;;;;;;5096561;28;20408;-81
2024/01/30 04:13:15;;;;;;;11.68;7.82;;;;;;;;;;5094917;28;20047;-81
2024/01/30 04:15:41;;;;;;;10.23;7.10;;;;;;;;;;5096492;28;20553;-81
2024/01/30 04:18:07;;;;;;;10.55;7.20;;;;;;;;;;5096465;28;20122;-81
2024/01/30 04:20:33;;;;;;;10.55;7.55;;;;;;;;;;5096824;28;20040;-81
2024/01/30 04:22:59;;;;;;;10.60;6.88;;;;;;;;;;5087196;28;20043;-81
2024/01/30 04:25:25;;;;;;;11.30;7.38;;;;;;;;;;5095248;28;20108;-81
2024/01/30 04:27:51;;;;;;;12.27;7.88;;;;;;;;;;5094600;28;20470;-82
2024/01/30 04:30:17;;;;;;;9.27;6.28;;;;;;;;;;5094020;28;20060;-82
2024/01/30 04:32:44;;;;;;;10.80;6.60;;;;;;;;;;5094557;28;20044;-82
2024/01/30 04:35:10;;;;;;;11.77;7.50;;;;;;;;;;5095172;28;20163;-82
2024/01/30 04:37:36;;;;;;;11.48;8.00;;;;;;;;;;5095056;28;20064;-82
2024/01/30 04:40:03;;;;;;;12.43;8.05;;;;;;;;;;5094350;28;20028;-82
2024/01/30 04:42:29;;;;;;;13.02;8.38;;;;;;;;;;5098198;28;20028;-82
2024/01/30 04:44:55;;;;;;;9.82;7.03;;;;;;;;;;5099354;28;20115;-82
2024/01/30 04:47:21;;;;;;;11.35;7.35;;;;;;;;;;5083602;28;20086;-82
2024/01/30 04:49:52;;;;;;;14.07;8.27;;;;;;;;;;5101305;28;20446;-82
2024/01/30 04:52:18;;;;;;;9.63;6.45;;;;;;;;;;5101076;28;20108;-82
2024/01/30 04:54:44;;;;;;;10.00;6.82;;;;;;;;;;5101495;28;20068;-82
2024/01/30 04:57:12;;;;;;;10.40;6.18;;;;;;;;;;5101048;28;20036;-82
2024/01/30 04:59:38;;;;;;;9.77;6.25;;;;;;;;;;5101752;28;20492;-82
2024/01/30 05:02:04;;;;;;;12.18;7.20;;;;;;;;;;5102770;28;20039;-82
2024/01/30 05:04:29;;;;;;;12.60;7.88;;;;;;;;;;5102420;28;20404;-81
2024/01/30 05:06:56;;;;;;;12.68;8.48;;;;;;;;;;5103071;28;20407;-81
2024/01/30 05:09:22;;;;;;;11.77;7.53;;;;;;;;;;5104185;28;20048;-81
2024/01/30 05:11:48;;;;;;;9.88;6.72;;;;;;;;;;5106214;28;20373;-81
2024/01/30 05:14:15;;;;;;;14.45;7.68;;;;;;;;;;5109880;28;20036;-81
2024/01/30 05:16:42;;;;;;;10.05;6.40;;;;;;;;;;5110277;28;20031;-81
2024/01/30 05:19:08;;;;;;;12.98;6.90;;;;;;;;;;5103930;28;20044;-81
2024/01/30 05:21:34;;;;;;;10.55;6.82;;;;;;;;;;5108467;28;20032;-81
2024/01/30 05:24:00;;;;;;;11.00;6.95;;;;;;;;;;5102987;28;20047;-81
2024/01/30 05:26:26;;;;;;;13.13;7.35;;;;;;;;;;5102465;28;20036;-81
2024/01/30 05:28:52;;;;;;;10.57;7.13;;;;;;;;;;5101064;28;20048;-81
2024/01/30 05:31:18;;;;;;;11.57;7.38;;;;;;;;;;5102132;28;20485;-82
2024/01/30 05:33:44;;;;;;;10.07;7.85;;;;;;;;;;5103232;28;20082;-82
2024/01/30 05:36:13;;;;;;;13.05;8.13;;;;;;;;;;5104376;28;20040;-82
2024/01/30 05:38:39;;;;;;;12.43;8.15;;;;;;;;;;5099616;28;20040;-82
2024/01/30 05:41:05;;;;;;;13.93;7.38;;;;;;;;;;5101418;28;20047;-81
2024/01/30 05:43:31;;;;;;;12.95;8.13;;;;;;;;;;5097710;28;20078;-82
2024/01/30 05:45:57;;;;;;;12.32;7.95;;;;;;;;;;5109134;28;20024;-82
2024/01/30 05:48:23;;;;;;;11.90;7.28;;;;;;;;;;5112659;28;20090;-84
2024/01/30 05:50:49;;;;;;;10.00;7.55;;;;;;;;;;5093739;28;20044;-81
2024/01/30 05:53:15;;;;;;;11.88;7.78;;;;;;;;;;5095385;28;20109;-81
2024/01/30 05:55:41;;;;;;;11.38;6.82;;;;;;;;;;5094016;28;20040;-82
2024/01/30 05:58:07;;;;;;;10.45;7.68;;;;;;;;;;5099920;28;20060;-82
2024/01/30 06:00:33;;;;;;;11.63;7.68;;;;;;;;;;5095580;28;20028;-83
2024/01/30 06:02:59;;;;;;;11.20;7.97;;;;;;;;;;5094706;28;20036;-82
2024/01/30 06:05:25;;;;;;;11.50;7.60;;;;;;;;;;5090722;28;20115;-82
2024/01/30 06:07:52;;;;;;;10.52;6.97;;;;;;;;;;5092326;28;20048;-83
2024/01/30 06:10:18;;;;;;;10.50;7.28;;;;;;;;;;5093413;28;20044;-83
2024/01/30 06:12:44;;;;;;;9.63;6.38;;;;;;;;;;5091725;28;20051;-81
2024/01/30 06:15:12;;;;;;;11.93;7.47;;;;;;;;;;5096568;28;20453;-81
2024/01/30 06:17:38;;;;;;;12.23;6.97;;;;;;;;;;5098165;28;20507;-81
2024/01/30 06:20:05;;;;;;;10.40;6.70;;;;;;;;;;5078778;28;20075;-81
2024/01/30 06:22:31;;;;;;;9.82;6.05;;;;;;;;;;5096576;28;20052;-81
2024/01/30 06:24:57;;;;;;;7.47;5.65;;;;;;;;;;5096024;28;20066;-81
2024/01/30 06:27:23;;;;;;;11.65;6.55;;;;;;;;;;5095807;28;20485;-81
2024/01/30 06:29:49;;;;;;;9.50;6.30;;;;;;;;;;5095611;28;20036;-81
2024/01/30 06:32:15;;;;;;;10.20;6.97;;;;;;;;;;5095207;28;20408;-81
2024/01/30 06:34:44;;;;;;;9.13;6.72;;;;;;;;;;5096496;28;20056;-82
2024/01/30 06:37:10;;;;;;;10.60;6.32;;;;;;;;;;5094864;28;20040;-81
2024/01/30 06:39:36;;;;;;;9.88;6.47;;;;;;;;;;5096112;28;20036;-81
2024/01/30 06:42:01;;;;;;;9.80;7.65;;;;;;;;;;5094471;28;20158;-81
2024/01/30 06:44:28;;;;;;;9.73;6.90;;;;;;;;;;5094732;28;20118;-81
2024/01/30 06:46:54;;;;;;;10.07;6.95;;;;;;;;;;5095293;28;20036;-81
2024/01/30 06:49:21;;;;;;;10.95;5.97;;;;;;;;;;5095061;28;20031;-81
2024/01/30 06:51:47;;;;;;;16.35;6.90;;;;;;;;;;5096418;28;20415;-81
2024/01/30 06:54:13;;;;;;;9.18;5.63;;;;;;;;;;5099588;28;20119;-81
2024/01/30 06:56:39;;;;;;;10.73;6.18;;;;;;;;;;5096945;28;20075;-81
2024/01/30 06:59:05;;;;;;;12.02;6.40;;;;;;;;;;5096258;28;20048;-82
2024/01/30 07:01:32;;;;;;;8.77;6.30;;;;;;;;;;5094477;28;20036;-81
2024/01/30 07:03:58;;;;;;;9.43;6.05;;;;;;;;;;5097253;28;20036;-81
2024/01/30 07:06:24;;;;;;;9.05;6.28;;;;;;;;;;5079140;28;20039;-82
2024/01/30 07:08:50;;;;;;;12.48;6.55;;;;;;;;;;5095012;28;20043;-82
2024/01/30 07:11:22;;;;;;;9.65;6.45;;;;;;;;;;5094679;28;20071;-82
2024/01/30 07:13:48;;;;;;;8.48;5.53;;;;;;;;;;5096732;28;20066;-81
2024/01/30 07:16:15;;;;;;;7.53;6.00;;;;;;;;;;5096971;28;20094;-81
2024/01/30 07:18:40;;;;;;;10.77;6.97;;;;;;;;;;5094465;28;20062;-82
2024/01/30 07:21:06;;;;;;;9.95;6.50;;;;;;;;;;5095158;28;20036;-81
2024/01/30 07:23:34;;;;;;;11.07;7.65;;;;;;;;;;5077861;28;20377;-81
2024/01/30 07:26:00;;;;;;;10.82;6.57;;;;;;;;;;5095107;28;20039;-82
2024/01/30 07:28:26;;;;;;;11.98;7.32;;;;;;;;;;5096063;28;20123;-82
2024/01/30 07:30:52;;;;;;;11.10;7.53;;;;;;;;;;5095977;28;20141;-82
2024/01/30 07:33:18;;;;;;;12.80;7.30;;;;;;;;;;5093193;28;20550;-82
2024/01/30 07:35:45;;;;;;;10.55;6.63;;;;;;;;;;5096493;28;20028;-82
2024/01/30 07:38:11;;;;;;;9.32;5.93;;;;;;;;;;5095154;28;20043;-82
2024/01/30 07:40:37;;;;;;;13.45;6.15;;;;;;;;;;5096846;28;20302;-82
2024/01/30 07:43:04;;;;;;;8.45;5.85;;;;;;;;;;5095894;28;20408;-82
2024/01/30 07:45:33;;;;;;;9.02;5.80;;;;;;;;;;5103611;28;20062;-82
2024/01/30 07:48:02;;;;;;;8.60;5.07;;;;;;;;;;5089143;28;20923;-82
2024/01/30 07:50:28;;;;;;;9.43;5.55;;;;;;;;;;5122273;27;20048;-82
2024/01/30 07:52:54;;;;;;;8.90;5.68;;;;;;;;;;5088195;28;20043;-81
2024/01/30 07:55:24;;;;;;;8.73;5.85;;;;;;;;;;5093414;28;20048;-81
2024/01/30 07:57:50;;;;;;;7.85;5.28;;;;;;;;;;5124812;27;20131;-82
2024/01/30 08:00:17;;;;;;;10.30;6.30;;;;;;;;;;5094162;28;20502;-81
2024/01/30 08:02:55;;;;;;;9.70;5.95;;;;;;;;;;5093397;28;20040;-81
2024/01/30 08:05:24;;;;;;;9.13;5.85;;;;;;;;;;5088970;28;20032;-83
2024/01/30 08:07:51;;;;;;;10.35;6.57;;;;;;;;;;5076389;28;20047;-83
2024/01/30 08:10:20;;;;;;;7.38;4.85;;;;;;;;;;5075104;28;20640;-83
2024/01/30 08:12:46;;;;;;;11.85;6.43;;;;;;;;;;5070836;28;20132;-83
2024/01/30 08:15:13;;;;;;;10.20;6.97;;;;;;;;;;5076209;28;20174;-83
2024/01/30 08:17:39;;;;;;;14.27;6.53;;;;;;;;;;5078200;28;20032;-83
2024/01/30 08:20:05;;;;;;;11.57;6.95;;;;;;;;;;5096530;28;20040;-83
2024/01/30 08:22:31;;;;;;;9.85;6.20;;;;;;;;;;5079859;28;20500;-83
2024/01/30 08:24:57;;;;;;;10.00;6.30;;;;;;;;;;5081747;28;20036;-83
2024/01/30 08:27:23;;;;;;;9.23;6.05;;;;;;;;;;5100390;28;20028;-82
2024/01/30 08:29:50;;;;;;;9.38;6.22;;;;;;;;;;5107205;28;20066;-82
2024/01/30 08:32:16;;;;;;;8.25;5.65;;;;;;;;;;5106218;28;20069;-83
2024/01/30 08:34:42;;;;;;;10.43;7.03;;;;;;;;;;5106241;28;20038;-83
2024/01/30 08:37:08;;;;;;;10.65;6.93;;;;;;;;;;5080642;28;20032;-83
2024/01/30 08:39:34;;;;;;;8.82;5.68;;;;;;;;;;5096387;28;20557;-83
2024/01/30 08:42:00;;;;;;;11.23;6.88;;;;;;;;;;5095694;28;20413;-83
2024/01/30 08:44:27;;;;;;;8.85;5.85;;;;;;;;;;5094732;28;20070;-83
2024/01/30 08:46:53;;;;;;;9.70;6.28;;;;;;;;;;5079151;28;20126;-82
2024/01/30 08:49:20;;;;;;;10.23;6.72;;;;;;;;;;5077043;28;20142;-82
2024/01/30 08:51:47;;;;;;;10.77;6.70;;;;;;;;;;5094432;28;20035;-83
2024/01/30 08:54:13;;;;;;;9.52;6.60;;;;;;;;;;5095923;28;20409;-83
2024/01/30 08:56:39;;;;;;;9.60;7.03;;;;;;;;;;5096409;28;20066;-84
2024/01/30 08:59:05;;;;;;;10.77;7.28;;;;;;;;;;5076787;28;20431;-83
2024/01/30 09:01:31;;;;;;;10.18;7.20;;;;;;;;;;5095025;28;20408;-83
2024/01/30 09:03:57;;;;;;;8.75;6.18;;;;;;;;;;5096206;28;20044;-83
2024/01/30 09:06:26;;;;;;;8.23;6.05;;;;;;;;;;5076150;28;20032;-83
2024/01/30 09:08:52;;;;;;;7.80;6.03;;;;;;;;;;5077870;28;20401;-82
2024/01/30 09:11:18;;;;;;;9.13;5.95;;;;;;;;;;5079194;28;20085;-83
2024/01/30 09:13:44;;;;;;;8.43;5.90;;;;;;;;;;5096142;28;20048;-82
2024/01/30 09:16:11;;;;;;;11.27;6.47;;;;;;;;;;5096253;28;20382;-83
2024/01/30 09:18:36;;;;;;;9.13;6.65;;;;;;;;;;5094828;28;20070;-84
2024/01/30 09:21:02;;;;;;;10.35;6.30;;;;;;;;;;5078840;28;20036;-83
2024/01/30 09:23:28;;;;;;;9.43;6.22;;;;;;;;;;5095508;28;20165;-83
2024/01/30 09:25:54;;;;;;;6.95;4.72;;;;;;;;;;5094366;28;20044;-83
2024/01/30 09:28:20;;;;;;;9.45;5.93;;;;;;;;;;5079849;28;20109;-82
2024/01/30 09:30:46;;;;;;;10.80;5.38;;;;;;;;;;5092410;28;20066;-84
2024/01/30 09:33:12;;;;;;;10.57;5.53;;;;;;;;;;5092322;28;20040;-82
2024/01/30 09:35:38;;;;;;;9.60;5.97;;;;;;;;;;5095770;28;20415;-82
2024/01/30 09:38:04;;;;;;;8.25;5.95;;;;;;;;;;5096452;28;20040;-82
2024/01/30 09:40:30;;;;;;;8.85;5.95;;;;;;;;;;5096540;28;20078;-82
2024/01/30 09:42:57;;;;;;;9.57;5.93;;;;;;;;;;5078775;28;20048;-82
2024/01/30 09:45:25;;;;;;;9.13;6.07;;;;;;;;;;5075727;28;20028;-82
2024/01/30 09:47:51;;;;;;;10.57;5.55;;;;;;;;;;5095818;28;20039;-82
2024/01/30 09:50:17;;;;;;;9.60;6.05;;;;;;;;;;5095420;28;20040;-82
2024/01/30 09:52:44;;;;;;;9.43;6.85;;;;;;;;;;5096463;28;20454;-82
2024/01/30 09:55:10;;;;;;;8.82;5.25;;;;;;;;;;5097201;28;20107;-82
2024/01/30 09:57:36;;;;;;;8.40;5.63;;;;;;;;;;5079486;28;20055;-82
2024/01/30 10:00:04;;;;;;;8.07;5.72;;;;;;;;;;5095894;28;20040;-82
2024/01/30 10:02:31;;;;;;;9.48;5.95;;;;;;;;;;5096588;28;20083;-82
2024/01/30 10:04:57;;;;;;;10.82;6.63;;;;;;;;;;5096980;28;20496;-82
2024/01/30 10:07:23;;;;;;;9.68;5.90;;;;;;;;;;5095686;28;20046;-82
2024/01/30 10:09:49;;;;;;;9.80;6.07;;;;;;;;;;5096705;28;20508;-82
2024/01/30 10:12:16;;;;;;;8.23;6.00;;;;;;;;;;5100209;28;20039;-82
2024/01/30 10:14:43;;;;;;;8.60;5.85;;;;;;;;;;5096850;28;20962;-81
2024/01/30 10:17:09;;;;;;;6.68;5.05;;;;;;;;;;5094969;28;20050;-81
2024/01/30 10:19:40;;;;;;;8.90;6.13;;;;;;;;;;5096859;28;20074;-82
2024/01/30 10:22:06;;;;;;;8.38;5.57;;;;;;;;;;5103655;28;20044;-82
2024/01/30 10:24:33;;;;;;;9.55;6.05;;;;;;;;;;5109760;28;20020;-82
2024/01/30 10:27:00;;;;;;;8.63;6.07;;;;;;;;;;5111054;28;20040;-82
2024/01/30 10:29:26;;;;;;;6.53;5.65;;;;;;;;;;5107328;28;20036;-80
2024/01/30 10:31:59;;;;;;;9.10;5.80;;;;;;;;;;5107134;28;20079;-82
2024/01/30 10:34:26;;;;;;;9.00;5.35;;;;;;;;;;5095299;28;20042;-81
2024/01/30 10:36:56;;;;;;;8.35;5.90;;;;;;;;;;5095211;28;20444;-81
2024/01/30 10:39:22;;;;;;;;;;;;;;;;;;5097241;28;20047;-82
2024/01/30 10:41:48;;;;;;;9.38;5.18;;;;;;;;;;5096165;28;19920;-83
2024/01/30 10:44:18;;;;;;;7.82;5.03;;;;;;;;;;5093059;28;20036;-83
2024/01/30 10:46:47;;;;;;;8.70;5.03;;;;;;;;;;5097716;28;20047;-83
2024/01/30 10:49:14;;;;;;;9.10;5.07;;;;;;;;;;5097956;28;20058;-81
2024/01/30 10:51:41;;;;;;;8.07;5.90;;;;;;;;;;5097250;28;20032;-82
2024/01/30 10:54:07;;;;;;;10.85;5.43;;;;;;;;;;5096978;28;20070;-82
2024/01/30 10:56:34;;;;;;;8.88;6.05;;;;;;;;;;5096492;28;20040;-82
2024/01/30 10:59:00;;;;;;;8.02;5.68;;;;;;;;;;5095137;28;20040;-82
2024/01/30 11:01:27;;;;;;;9.23;5.65;;;;;;;;;;5097321;28;20036;-83
2024/01/30 11:03:53;;;;;;;9.23;5.78;;;;;;;;;;5097012;28;20043;-83
2024/01/30 11:06:22;;;;;;;9.27;6.40;;;;;;;;;;5097253;28;20130;-83
2024/01/30 11:09:02;;;;;;;7.90;5.45;;;;;;;;;;5096963;28;20058;-82
2024/01/30 11:11:27;;;;;;;10.55;5.45;;;;;;;;;;5085417;28;20123;-82
2024/01/30 11:13:53;;;;;;;8.10;6.03;;;;;;;;;;5097064;28;20079;-82
2024/01/30 11:16:20;;;;;;;11.55;6.25;;;;;;;;;;5096917;28;20075;-82
2024/01/30 11:18:51;;;;;;;7.97;5.53;;;;;;;;;;5092049;28;20035;-83
2024/01/30 11:21:17;;;;;;;10.30;6.10;;;;;;;;;;5098135;28;20036;-83
2024/01/30 11:23:43;;;;;;;10.55;5.78;;;;;;;;;;5089961;28;20032;-82
2024/01/30 11:26:12;;;;;;;9.32;5.63;;;;;;;;;;5096364;28;20608;-81
2024/01/30 11:28:38;;;;;;;12.88;6.22;;;;;;;;;;5092794;28;20063;-83
2024/01/30 11:31:06;;;;;;;10.40;6.10;;;;;;;;;;5078547;28;20044;-83
2024/01/30 11:33:33;;;;;;;10.13;6.15;;;;;;;;;;5092524;28;20576;-83
2024/01/30 11:35:59;;;;;;;9.80;6.10;;;;;;;;;;5085254;28;20040;-82
2024/01/30 11:38:26;;;;;;;10.82;7.35;;;;;;;;;;5079693;28;20051;-83
2024/01/30 11:40:53;;;;;;;13.70;8.20;;;;;;;;;;5097647;28;20044;-83
2024/01/30 11:43:19;;;;;;;13.68;6.50;;;;;;;;;;5095929;28;20042;-83
2024/01/30 11:45:45;;;;;;;8.35;5.82;;;;;;;;;;5097957;28;20044;-83
2024/01/30 11:48:14;;;;;;;9.20;6.32;;;;;;;;;;5099139;28;20511;-83
2024/01/30 11:50:41;;;;;;;9.95;7.05;;;;;;;;;;5098095;28;20056;-83
2024/01/30 11:53:07;;;;;;;11.77;8.35;;;;;;;;;;5097426;28;20040;-82
2024/01/30 11:55:34;;;;;;;11.77;9.13;;;;;;;;;;5099838;28;20377;-83
2024/01/30 11:58:00;;;;;;;9.93;5.70;;;;;;;;;;5098125;28;20040;-83
2024/01/30 12:00:26;;;;;;;12.32;6.25;;;;;;;;;;5100211;28;20052;-83
2024/01/30 12:02:55;;;;;;;10.60;7.82;;;;;;;;;;5097664;28;20104;-83
2024/01/30 12:05:25;;;;;;;6.45;5.70;;;;;;;;;;5102786;28;20377;-85
2024/01/30 12:07:52;;;;;;;8.13;5.30;;;;;;;;;;5097441;28;20100;-83
2024/01/30 12:10:18;;;;;;;7.55;5.85;;;;;;;;;;5101895;28;20048;-84
2024/01/30 12:12:46;;;;;;;9.73;5.90;;;;;;;;;;5098411;28;20567;-84
2024/01/30 12:15:13;;;;;;;8.65;6.13;;;;;;;;;;5097195;28;20654;-84
2024/01/30 12:17:39;;;;;;;7.65;5.80;;;;;;;;;;5095534;28;20531;-83
2024/01/30 12:20:09;;;;;;;10.13;5.28;;;;;;;;;;5101204;28;20115;-84
2024/01/30 12:22:39;;;;;;;6.60;4.97;;;;;;;;;;5097607;28;20104;-86
2024/01/30 12:25:06;;;;;;;7.53;6.20;;;;;;;;;;5099914;28;20471;-86
2024/01/30 12:27:32;;;;;;;8.00;4.28;;;;;;;;;;5094105;28;20072;-83
2024/01/30 12:29:58;;;;;;;9.85;5.32;;;;;;;;;;5096462;28;20035;-85
2024/01/30 12:32:24;;;;;;;6.20;3.97;;;;;;;;;;5096219;28;20048;-83
2024/01/30 12:34:50;;;;;;;7.28;4.80;;;;;;;;;;5096806;28;20040;-83
2024/01/30 12:37:22;;;;;;;6.78;3.65;;;;;;;;;;5099435;28;20059;-83
2024/01/30 12:39:48;;;;;;;6.85;3.00;;;;;;;;;;5098422;28;20053;-84
2024/01/30 12:42:15;;;;;;;7.72;2.60;;;;;;;;;;5099977;28;20080;-83
2024/01/30 12:44:41;;;;;;;3.47;2.80;;;;;;;;;;5104127;28;20038;-83
2024/01/30 12:47:10;;;;;;;4.63;3.33;;;;;;;;;;5100681;28;20032;-82
2024/01/30 12:49:36;;;;;;;3.67;2.60;;;;;;;;;;5094656;28;20032;-85
2024/01/30 12:52:02;;;;;;;5.15;3.50;;;;;;;;;;5098742;28;20089;-83
2024/01/30 12:54:28;;;;;;;5.25;2.65;;;;;;;;;;5096885;28;20408;-84
2024/01/30 12:56:56;;;;;;;1.67;1.55;;;;;;;;;;5077188;28;20562;-84
2024/01/30 12:59:22;;;;;;;1.60;1.35;;;;;;;;;;5096404;28;20051;-83
2024/01/30 13:01:48;;;;;;;5.07;2.50;;;;;;;;;;5096538;28;20040;-82
2024/01/30 13:04:15;;;;;;;5.68;1.98;;;;;;;;;;5096132;28;20055;-85
2024/01/30 13:06:40;;;;;;;4.03;2.00;;;;;;;;;;5089786;28;20040;-85
2024/01/30 13:09:07;;;;;;;3.78;1.45;;;;;;;;;;5089384;28;20062;-89
2024/01/30 13:11:34;;;;;;;2.38;1.75;;;;;;;;;;5071557;28;20062;-88
2024/01/30 13:14:00;;;;;;;4.40;2.00;;;;;;;;;;5090613;28;20416;-85
2024/01/30 13:16:26;;;;;;;4.32;2.30;;;;;;;;;;5091181;28;20093;-83
2024/01/30 13:18:52;;;;;;;3.88;1.65;;;;;;;;;;5096502;28;20062;-82
2024/01/30 13:21:19;;;;;;;2.22;1.55;;;;;;;;;;5094637;28;20067;-81
2024/01/30 13:23:45;;;;;;;5.55;1.58;;;;;;;;;;5092023;28;20055;-82
2024/01/30 13:26:11;;;;;;;5.03;2.55;;;;;;;;;;5093017;28;20515;-83
2024/01/30 13:28:37;;;;;;;4.45;1.98;;;;;;;;;;5092753;28;20113;-83
2024/01/30 13:31:05;;;;;;;2.50;1.77;;;;;;;;;;5095127;28;20056;-82
2024/01/30 13:33:31;;;;;;;3.75;1.92;;;;;;;;;;5093351;28;20059;-84
2024/01/30 13:35:57;;;;;;;3.67;2.30;;;;;;;;;;5094741;28;20131;-82
2024/01/30 13:38:23;;;;;;;3.15;1.55;;;;;;;;;;5095368;28;20071;-82
2024/01/30 13:40:49;;;;;;;1.83;1.10;;;;;;;;;;5095441;28;20093;-82
2024/01/30 13:43:16;;;;;;;1.05;0.95;;;;;;;;;;5096892;28;20040;-82
2024/01/30 13:45:42;;;;;;;1.83;0.80;;;;;;;;;;5098995;28;20535;-82
2024/01/30 13:48:08;;;;;;;1.17;1.00;;;;;;;;;;5101903;28;20051;-82
2024/01/30 13:50:34;;;;;;;3.60;1.05;;;;;;;;;;5102761;28;20056;-82
2024/01/30 13:53:00;;;;;;;1.42;1.10;;;;;;;;;;5101538;28;20027;-83
2024/01/30 13:55:26;;;;;;;3.05;1.70;;;;;;;;;;5101898;28;20036;-82
2024/01/30 13:57:52;;;;;;;3.90;1.02;;;;;;;;;;5103640;28;20036;-82
2024/01/30 14:00:18;;;;;;;1.70;1.25;;;;;;;;;;5105718;28;20047;-82
2024/01/30 14:02:44;;;;;;;3.83;1.52;;;;;;;;;;5098242;28;20040;-81
2024/01/30 14:05:10;;;;;;;4.07;1.98;;;;;;;;;;5096916;28;20044;-82
2024/01/30 14:07:39;;;;;;;3.05;1.15;;;;;;;;;;5093484;28;20044;-82
2024/01/30 14:10:06;;;;;;;2.60;1.67;;;;;;;;;;5097309;28;20076;-82
2024/01/30 14:12:32;;;;;;;4.03;1.45;;;;;;;;;;5097052;28;20108;-82
2024/01/30 14:14:58;;;;;;;2.03;1.20;;;;;;;;;;5097828;28;20046;-81
2024/01/30 14:17:24;;;;;;;2.10;1.02;;;;;;;;;;5100338;28;20484;-82
2024/01/30 14:19:50;;;;;;;1.40;0.95;;;;;;;;;;5099293;28;20038;-81
2024/01/30 14:22:16;;;;;;;1.92;1.17;;;;;;;;;;5094575;28;20126;-82
2024/01/30 14:24:42;;;;;;;0.47;0.47;;;;;;;;;;5095337;28;20529;-82
2024/01/30 14:27:08;;;;;;;3.05;0.82;;;;;;;;;;5097377;28;20032;-84
2024/01/30 14:29:34;;;;;;;2.28;1.00;;;;;;;;;;5096851;28;20032;-82
2024/01/30 14:32:00;;;;;;;4.63;1.50;;;;;;;;;;5096575;28;20036;-81
2024/01/30 14:34:27;;;;;;;1.65;0.98;;;;;;;;;;5091187;28;20144;-82